VTSE/CJM METAR and TAF weather

Enter ICAO airport designator
Station Type Date Time Source
VTSE METAR 2021/04/13 06:00 UTC NOAA

VTSE 130600Z 09009KT 060V120 9999 FEW020 33/25 Q1011 NOSIG


Station Type Date Time Source
VTSE Decoded METAR 2021/04/13 06:00 UTC NOAA

Station name not available
Apr 13, 2021 - 02:00 AM EDT / 2021.04.13 0600 UTC
Wind: from the E (090 degrees) at 10 MPH (9 KT) (direction variable):0
Visibility: greater than 7 mile(s):0
Sky conditions: mostly clear
Temperature: 91 F (33 C)
Heat index: 103.5 F (39.7 C):1
Dew Point: 77 F (25 C)
Relative Humidity: 62%
Pressure (altimeter): 29.85 in. Hg (1011 hPa)
ob: VTSE 130600Z 09009KT 060V120 9999 FEW020 33/25 Q1011 NOSIG
cycle: 6

Station Type Date Time Source
VTSE TAF 2021/04/13 06:00 UTC NOAA

TAF VTSE 130500Z 1306/1406 09008KT 9999 SCT020

Example: see airport list